Time;durP1;ratioP1;P1;durP2;ratioP2;P2;SDS_P1;SDS_P2;PMS_P1;PMS_P2;Temp;Humidity;BMP_temperature;BMP_pressure;BME280_temperature;BME280_humidity;BME280_pressure;Samples;Min_cycle;Max_cycle;Signal;HPM_P1;HPM_P2
2021/07/08 00:01:43;;;;;;;6.00;2.30;;;;;;;19.04;71.26;101562.09;4976668;28;20031;-77
2021/07/08 00:04:09;;;;;;;4.22;1.98;;;;;;;19.02;71.31;101569.00;4976576;28;20027;-76
2021/07/08 00:06:35;;;;;;;4.60;2.08;;;;;;;19.02;71.66;101569.00;4976609;28;20029;-76
2021/07/08 00:09:00;;;;;;;5.32;2.00;;;;;;;18.97;71.64;101569.75;4977875;28;20055;-76
2021/07/08 00:11:26;;;;;;;7.05;2.58;;;;;;;18.96;71.83;101570.56;4995779;28;20069;-76
2021/07/08 00:13:53;;;;;;;7.35;2.50;;;;;;;18.92;71.93;101579.16;4978377;28;20026;-76
2021/07/08 00:16:18;;;;;;;5.20;2.33;;;;;;;18.84;71.97;101565.84;4978349;28;20097;-76
2021/07/08 00:18:44;;;;;;;2.83;1.90;;;;;;;18.85;71.88;101561.53;4995623;28;20030;-76
2021/07/08 00:21:11;;;;;;;6.95;2.53;;;;;;;18.80;71.81;101557.91;4978296;28;20468;-76
2021/07/08 00:23:37;;;;;;;8.05;2.60;;;;;;;18.79;71.97;101558.75;4978223;28;20050;-76
2021/07/08 00:26:02;;;;;;;4.18;2.28;;;;;;;18.75;72.39;101543.84;4996120;28;20468;-76
2021/07/08 00:28:28;;;;;;;3.55;2.40;;;;;;;18.77;71.70;101552.59;4961898;28;20064;-76
2021/07/08 00:30:54;;;;;;;4.55;1.95;;;;;;;18.77;72.46;101557.81;4961773;28;20065;-76
2021/07/08 00:33:21;;;;;;;6.50;2.33;;;;;;;18.74;72.17;101553.38;4994385;28;20037;-76
2021/07/08 00:35:48;;;;;;;6.57;2.60;;;;;;;18.74;72.14;101560.31;4994248;28;20057;-76
2021/07/08 00:38:14;;;;;;;12.80;3.08;;;;;;;18.66;72.47;101549.66;4995243;28;20088;-76
2021/07/08 00:40:40;;;;;;;5.05;2.22;;;;;;;18.67;72.21;101552.31;4995255;28;20108;-76
2021/07/08 00:43:06;;;;;;;5.53;2.15;;;;;;;18.67;72.20;101552.31;4994090;28;20495;-76
2021/07/08 00:45:32;;;;;;;4.38;2.20;;;;;;;18.66;72.73;101547.94;4994112;28;20451;-76
2021/07/08 00:47:58;;;;;;;4.95;2.45;;;;;;;18.69;72.82;101555.84;4995156;28;20026;-77
2021/07/08 00:50:28;;;;;;;4.65;2.63;;;;;;;18.65;72.49;101554.00;4993401;28;20487;-76
2021/07/08 00:52:53;;;;;;;4.10;2.08;;;;;;;18.65;71.88;101559.22;4995361;28;20464;-76
2021/07/08 00:55:19;;;;;;;4.75;2.05;;;;;;;18.62;72.09;101559.13;5004454;28;20026;-76
2021/07/08 00:57:54;;;;;;;7.82;2.42;;;;;;;18.56;72.07;101558.94;4996975;28;20022;-77
2021/07/08 01:00:29;;;;;;;6.38;2.50;;;;;;;18.57;71.42;101568.53;4997193;28;20098;-77
2021/07/08 01:02:55;;;;;;;6.95;2.40;;;;;;;18.56;72.11;101558.94;4996520;28;20080;-77
2021/07/08 01:05:33;;;;;;;4.07;2.40;;;;;;;18.54;72.12;101565.78;4996944;28;20018;-77
2021/07/08 01:08:00;;;;;;;3.67;2.25;;;;;;;18.56;72.20;101569.38;5014634;28;20482;-77
2021/07/08 01:10:26;;;;;;;5.60;2.53;;;;;;;18.56;72.03;101566.75;4986049;28;20109;-77
2021/07/08 01:12:52;;;;;;;7.35;2.90;;;;;;;18.56;71.86;101569.38;4977309;28;20018;-77
2021/07/08 01:15:18;;;;;;;3.40;2.22;;;;;;;18.54;72.04;101571.91;4993579;28;20041;-77
2021/07/08 01:17:44;;;;;;;8.25;2.53;;;;;;;18.54;72.16;101573.63;4994601;28;20498;-77
2021/07/08 01:20:11;;;;;;;2.80;2.00;;;;;;;18.54;72.48;101571.00;4993194;28;20038;-77
2021/07/08 01:22:39;;;;;;;8.38;2.78;;;;;;;18.52;72.62;101562.25;4977120;28;20050;-76
2021/07/08 01:25:08;;;;;;;4.55;2.33;;;;;;;18.53;72.54;101564.03;4961130;28;20030;-76
2021/07/08 01:27:35;;;;;;;3.90;2.40;;;;;;;18.52;72.74;101570.06;4994685;28;20053;-76
2021/07/08 01:30:01;;;;;;;3.30;2.30;;;;;;;18.48;72.81;101563.00;4977044;28;20129;-77
2021/07/08 01:32:27;;;;;;;4.72;2.25;;;;;;;18.46;72.76;101567.28;4976349;28;20452;-77
2021/07/08 01:34:52;;;;;;;6.40;2.22;;;;;;;18.45;72.93;101568.13;4992607;28;20026;-77
2021/07/08 01:37:17;;;;;;;5.40;2.33;;;;;;;18.40;72.98;101558.44;4976709;28;20034;-78
2021/07/08 01:39:46;;;;;;;5.55;3.17;;;;;;;18.40;73.15;101563.66;4994161;28;20032;-77
2021/07/08 01:42:13;;;;;;;9.43;2.60;;;;;;;18.39;72.80;101561.88;4976861;28;20076;-77
2021/07/08 01:44:39;;;;;;;5.28;2.30;;;;;;;18.42;73.13;101570.63;4976727;28;20041;-78
2021/07/08 01:47:05;;;;;;;4.88;2.13;;;;;;;18.42;72.98;101575.84;4976718;28;20030;-78
2021/07/08 01:49:31;;;;;;;6.43;2.42;;;;;;;18.38;73.02;101570.53;4956323;28;20053;-78
2021/07/08 01:51:57;;;;;;;7.97;2.55;;;;;;;18.40;72.29;101579.28;4957171;28;20027;-78
2021/07/08 01:54:22;;;;;;;7.82;2.67;;;;;;;18.39;72.83;101574.91;4973004;28;20031;-77
2021/07/08 01:56:47;;;;;;;6.28;2.97;;;;;;;18.36;72.37;101572.22;4974553;28;20023;-77
2021/07/08 01:59:14;;;;;;;4.38;2.60;;;;;;;18.41;72.17;101574.97;4974575;28;20046;-77
2021/07/08 02:01:40;;;;;;;6.63;2.45;;;;;;;18.40;72.27;101571.47;4957232;28;20023;-76
2021/07/08 02:04:05;;;;;;;7.13;2.97;;;;;;;18.36;72.46;101572.22;4956942;28;20499;-76
2021/07/08 02:06:32;;;;;;;5.82;2.47;;;;;;;18.36;72.41;101571.34;4983921;28;20476;-76
2021/07/08 02:08:58;;;;;;;5.10;2.60;;;;;;;18.34;72.15;101568.66;4992937;28;20109;-76
2021/07/08 02:11:23;;;;;;;8.18;2.92;;;;;;;18.33;72.39;101566.91;4993607;28;20048;-76
2021/07/08 02:13:49;;;;;;;6.25;2.53;;;;;;;18.30;72.24;101561.56;4975912;28;20049;-78
2021/07/08 02:16:15;;;;;;;6.00;2.25;;;;;;;18.29;72.25;101565.03;4975645;28;20034;-76
2021/07/08 02:18:41;;;;;;;6.72;2.60;;;;;;;18.27;72.60;101560.63;4992367;28;20057;-76
2021/07/08 02:21:09;;;;;;;8.63;2.33;;;;;;;18.28;72.69;101565.00;4976194;28;20041;-76
2021/07/08 02:23:36;;;;;;;4.50;2.67;;;;;;;18.23;72.48;101564.81;4992362;28;20030;-76
2021/07/08 02:26:03;;;;;;;6.30;2.50;;;;;;;18.18;73.00;101556.88;4992232;28;20503;-76
2021/07/08 02:28:29;;;;;;;6.00;2.40;;;;;;;18.18;72.24;101566.41;4992000;28;20022;-76
2021/07/08 02:30:55;;;;;;;6.75;2.60;;;;;;;18.16;72.02;101565.47;4960104;28;20045;-76
2021/07/08 02:33:22;;;;;;;5.40;2.50;;;;;;;18.17;71.27;101564.63;4976203;28;20029;-76
2021/07/08 02:35:48;;;;;;;4.60;2.45;;;;;;;18.21;71.17;101562.19;4975910;28;20480;-76
2021/07/08 02:38:13;;;;;;;7.18;2.70;;;;;;;18.19;71.25;101552.53;4975855;28;20081;-76
2021/07/08 02:40:39;;;;;;;6.78;2.45;;;;;;;18.21;71.38;101550.84;4993383;28;20054;-76
2021/07/08 02:43:05;;;;;;;11.77;2.50;;;;;;;18.18;71.17;101550.75;4975701;28;20030;-76
2021/07/08 02:45:34;;;;;;;4.47;2.30;;;;;;;18.22;70.92;101558.75;4993294;28;20066;-76
2021/07/08 02:48:02;;;;;;;4.32;2.22;;;;;;;18.25;71.23;101563.16;4992250;28;20081;-76
2021/07/08 02:50:30;;;;;;;3.63;2.72;;;;;;;18.26;70.89;101554.50;4975666;28;20488;-76
2021/07/08 02:52:56;;;;;;;7.50;2.65;;;;;;;18.25;71.21;101551.03;4993564;28;20031;-76
2021/07/08 02:55:22;;;;;;;9.68;3.17;;;;;;;18.24;71.56;101557.06;4992324;28;20032;-76
2021/07/08 02:57:48;;;;;;;5.85;2.45;;;;;;;18.24;71.62;101550.97;4975885;28;20061;-75
2021/07/08 03:00:16;;;;;;;5.20;2.90;;;;;;;18.23;71.29;101557.00;4992148;28;20054;-76
2021/07/08 03:02:42;;;;;;;6.43;2.47;;;;;;;18.19;71.81;101547.31;4975751;28;20018;-76
2021/07/08 03:05:09;;;;;;;4.38;2.50;;;;;;;18.21;71.50;101558.69;4991704;28;20026;-76
2021/07/08 03:07:35;;;;;;;5.30;2.60;;;;;;;18.18;71.79;101553.38;4976112;28;20026;-75
2021/07/08 03:10:01;;;;;;;5.97;2.83;;;;;;;18.18;71.11;101553.38;4972057;28;20043;-75
2021/07/08 03:12:27;;;;;;;6.30;2.47;;;;;;;18.23;71.24;101546.56;4972483;28;20089;-75
2021/07/08 03:14:52;;;;;;;7.03;2.67;;;;;;;18.24;71.06;101543.13;4988780;28;20088;-75
2021/07/08 03:17:18;;;;;;;5.18;2.45;;;;;;;18.22;70.96;101542.19;4973691;28;20042;-75
2021/07/08 03:19:43;;;;;;;5.30;2.67;;;;;;;18.23;71.04;101546.56;4973719;28;20114;-75
2021/07/08 03:22:10;;;;;;;6.13;2.72;;;;;;;18.24;71.30;101545.75;4988761;28;20030;-75
2021/07/08 03:24:35;;;;;;;7.20;3.03;;;;;;;18.23;71.51;101546.56;4973564;28;20109;-75
2021/07/08 03:27:01;;;;;;;6.25;2.88;;;;;;;18.21;71.62;101550.84;4988212;28;20065;-76
2021/07/08 03:29:26;;;;;;;6.20;3.20;;;;;;;18.23;71.53;101555.31;4975731;28;20030;-76
2021/07/08 03:31:52;;;;;;;8.32;2.90;;;;;;;18.25;71.71;101557.94;4977016;28;20030;-76
2021/07/08 03:34:17;;;;;;;3.95;2.58;;;;;;;18.24;71.84;101556.16;4991737;28;20105;-76
2021/07/08 03:36:43;;;;;;;5.97;3.00;;;;;;;18.23;71.79;101560.50;4977145;28;20468;-76
2021/07/08 03:39:08;;;;;;;4.82;2.55;;;;;;;18.22;71.66;101553.53;4977058;28;20101;-76
2021/07/08 03:41:34;;;;;;;7.35;2.83;;;;;;;18.23;71.25;101554.41;4977211;28;20085;-76
2021/07/08 03:44:00;;;;;;;5.57;3.03;;;;;;;18.25;71.64;101565.75;4975616;28;20443;-76
2021/07/08 03:46:26;;;;;;;7.47;2.58;;;;;;;18.29;71.82;101575.47;4975764;28;20026;-77
2021/07/08 03:48:51;;;;;;;7.10;2.70;;;;;;;18.28;71.41;101565.00;4976870;28;20034;-76
2021/07/08 03:51:16;;;;;;;7.30;3.17;;;;;;;18.32;71.35;101572.94;4991900;28;20488;-76
2021/07/08 03:53:42;;;;;;;8.05;3.10;;;;;;;18.32;71.28;101580.78;4991861;28;20106;-76
2021/07/08 03:56:07;;;;;;;10.48;3.17;;;;;;;18.33;71.58;101577.31;4975840;28;20027;-76
2021/07/08 03:58:33;;;;;;;8.85;3.92;;;;;;;18.26;71.84;101575.34;4975080;28;20384;-76
2021/07/08 04:00:59;;;;;;;5.88;2.95;;;;;;;18.28;71.83;101584.13;4975024;28;20054;-75
2021/07/08 04:03:25;;;;;;;3.78;2.80;;;;;;;18.31;71.86;101579.00;4975329;28;20050;-75
2021/07/08 04:05:50;;;;;;;7.60;3.30;;;;;;;18.21;72.25;101571.72;4974597;28;20437;-75
2021/07/08 04:08:16;;;;;;;6.80;2.50;;;;;;;18.28;71.86;101583.25;4976408;28;20358;-75
2021/07/08 04:10:43;;;;;;;3.90;2.72;;;;;;;18.27;72.10;101582.34;4991223;28;20045;-75
2021/07/08 04:13:11;;;;;;;5.65;3.15;;;;;;;18.31;71.69;101594.66;4991289;28;20102;-77
2021/07/08 04:15:37;;;;;;;7.18;3.05;;;;;;;18.33;71.50;101592.97;4975329;28;20123;-77
2021/07/08 04:18:03;;;;;;;6.57;2.85;;;;;;;18.35;71.75;101586.09;4975831;28;20041;-77
2021/07/08 04:20:30;;;;;;;8.80;2.80;;;;;;;18.39;71.74;101598.38;4975252;28;20061;-77
2021/07/08 04:22:56;;;;;;;4.72;2.78;;;;;;;18.40;72.54;101599.28;4975310;28;20027;-76
2021/07/08 04:25:22;;;;;;;4.40;2.83;;;;;;;18.36;72.48;101597.41;4974104;28;20113;-76
2021/07/08 04:27:48;;;;;;;6.63;3.00;;;;;;;18.38;71.91;101599.22;4974067;28;20062;-76
2021/07/08 04:30:17;;;;;;;6.97;2.97;;;;;;;18.43;71.95;101598.47;4974932;28;20031;-76
2021/07/08 04:32:43;;;;;;;6.05;3.08;;;;;;;18.43;72.11;101603.69;4974920;28;20023;-76
2021/07/08 04:35:14;;;;;;;6.25;3.08;;;;;;;18.43;71.63;101598.47;4974684;28;20362;-76
2021/07/08 04:37:41;;;;;;;6.70;3.30;;;;;;;18.38;71.73;101601.84;4974885;28;20023;-75
2021/07/08 04:40:10;;;;;;;8.60;3.60;;;;;;;18.31;72.32;101599.00;4973930;28;20031;-76
2021/07/08 04:42:37;;;;;;;8.65;3.30;;;;;;;18.30;72.32;101592.88;4990538;28;20045;-76
2021/07/08 04:45:03;;;;;;;8.90;3.08;;;;;;;18.36;72.49;101597.41;4976080;28;20050;-75
2021/07/08 04:47:29;;;;;;;8.52;3.13;;;;;;;18.36;72.27;101592.19;4976355;28;20447;-75
2021/07/08 04:49:55;;;;;;;9.55;3.22;;;;;;;18.49;71.91;101599.59;4974710;28;20109;-75
2021/07/08 04:52:20;;;;;;;4.90;3.15;;;;;;;18.50;72.09;101598.75;4974568;28;20492;-76
2021/07/08 04:54:46;;;;;;;8.98;4.25;;;;;;;18.52;72.46;101604.00;4973992;28;20034;-76
2021/07/08 04:57:12;;;;;;;4.88;3.20;;;;;;;18.51;72.26;101602.22;4974709;28;20026;-76
2021/07/08 04:59:37;;;;;;;6.78;3.22;;;;;;;18.55;72.31;101614.53;4975596;28;20034;-76
2021/07/08 05:02:03;;;;;;;7.55;3.22;;;;;;;18.53;71.80;101610.97;4975354;28;20032;-76
2021/07/08 05:04:29;;;;;;;8.85;3.55;;;;;;;18.37;72.90;101610.50;4989950;28;20030;-76
2021/07/08 05:06:54;;;;;;;9.52;3.70;;;;;;;18.33;73.08;101613.84;4973661;28;20472;-76
2021/07/08 05:09:20;;;;;;;8.27;4.45;;;;;;;18.45;73.09;101622.91;4980191;28;20050;-76
2021/07/08 05:11:45;;;;;;;6.05;3.75;;;;;;;18.52;72.74;101619.66;4977215;28;20121;-75
2021/07/08 05:14:11;;;;;;;6.72;3.30;;;;;;;18.62;72.18;101616.53;4977378;28;20037;-76
2021/07/08 05:16:37;;;;;;;7.90;3.35;;;;;;;18.68;72.10;101621.94;4977578;28;20034;-76
2021/07/08 05:19:03;;;;;;;5.80;3.22;;;;;;;18.71;71.86;101620.25;4994416;28;20076;-76
2021/07/08 05:21:29;;;;;;;6.90;3.72;;;;;;;18.80;71.32;101628.38;4977227;28;20026;-76
2021/07/08 05:23:58;;;;;;;5.63;3.50;;;;;;;18.80;71.48;101626.63;4977084;28;20035;-76
2021/07/08 05:26:27;;;;;;;6.13;3.70;;;;;;;18.81;70.88;101627.53;4977041;28;20634;-76
2021/07/08 05:28:53;;;;;;;8.05;3.53;;;;;;;18.79;70.87;101624.00;4976937;28;20041;-76
2021/07/08 05:31:19;;;;;;;6.25;3.67;;;;;;;18.79;71.45;101624.00;4994142;28;20435;-76
2021/07/08 05:33:45;;;;;;;9.65;3.85;;;;;;;18.78;71.95;101628.31;4960618;28;20029;-75
2021/07/08 05:36:10;;;;;;;5.30;3.67;;;;;;;18.72;71.80;101627.25;4976701;28;20034;-73
2021/07/08 05:38:36;;;;;;;7.60;4.00;;;;;;;18.79;72.14;101629.22;4993957;28;20112;-75
2021/07/08 05:41:02;;;;;;;11.82;4.00;;;;;;;18.81;71.74;101622.31;4960477;28;20041;-78
2021/07/08 05:43:28;;;;;;;7.28;3.42;;;;;;;18.89;71.76;101636.47;4993086;28;20096;-77
2021/07/08 05:49:15;;;;;;;5.53;3.33;;;;;;;18.94;72.44;101634.91;5001970;28;20073;-77
2021/07/08 05:51:41;;;;;;;9.65;3.67;;;;;;;19.02;72.35;101631.66;4993150;28;20061;-78
2021/07/08 05:54:08;;;;;;;9.20;4.32;;;;;;;19.02;71.94;101626.44;4987461;28;20014;-77
2021/07/08 05:56:34;;;;;;;8.00;3.42;;;;;;;19.05;71.70;101631.75;4993624;28;20100;-77
2021/07/08 05:58:59;;;;;;;7.22;3.85;;;;;;;19.12;71.69;101639.84;4975996;28;20475;-77
2021/07/08 06:01:24;;;;;;;11.20;4.07;;;;;;;19.14;71.35;101642.47;4993594;28;20073;-76
2021/07/08 06:07:51;;;;;;;13.73;3.60;;;;;;;19.19;71.31;101655.69;4986310;28;20099;-76
2021/07/08 06:10:17;;;;;;;7.70;3.72;;;;;;;19.23;71.49;101663.63;4970026;28;20495;-74
2021/07/08 06:12:42;;;;;;;8.20;4.18;;;;;;;19.29;71.33;101656.81;4986248;28;20019;-77
2021/07/08 06:15:09;;;;;;;10.48;4.05;;;;;;;19.31;70.93;101649.91;4994787;28;20729;-77
2021/07/08 06:17:34;;;;;;;7.65;4.25;;;;;;;19.37;71.07;101650.09;4963020;28;20023;-77
2021/07/08 06:20:01;;;;;;;6.88;4.25;;;;;;;19.37;71.29;101644.88;4983412;28;20085;-75
2021/07/08 06:22:27;;;;;;;11.10;4.20;;;;;;;19.42;70.89;101656.34;4974525;28;20481;-75
2021/07/08 06:24:52;;;;;;;6.43;3.92;;;;;;;19.43;70.81;101655.50;4975447;28;20041;-75
2021/07/08 06:27:18;;;;;;;5.95;4.05;;;;;;;19.46;70.58;101658.19;4973598;28;20026;-75
2021/07/08 06:29:43;;;;;;;9.52;4.30;;;;;;;19.50;70.47;101652.22;4993189;28;20030;-76
2021/07/08 06:32:09;;;;;;;10.98;3.95;;;;;;;19.55;70.32;101655.84;4988607;28;20479;-76
2021/07/08 06:34:35;;;;;;;5.28;3.75;;;;;;;19.67;70.13;101664.91;4992463;28;20022;-77
2021/07/08 06:37:01;;;;;;;5.10;3.50;;;;;;;19.71;70.35;101666.75;4956389;28;20030;-76
2021/07/08 06:39:26;;;;;;;9.13;3.95;;;;;;;19.73;69.73;101675.53;4989639;28;20109;-79
2021/07/08 06:41:52;;;;;;;4.97;3.92;;;;;;;19.73;70.39;101670.28;4979202;28;20032;-79
2021/07/08 06:44:17;;;;;;;6.35;3.63;;;;;;;19.68;71.04;101677.13;4975105;28;20684;-77
2021/07/08 06:46:49;;;;;;;11.60;3.92;;;;;;;19.74;70.29;101674.69;4975699;28;20386;-76
2021/07/08 06:49:15;;;;;;;5.80;3.72;;;;;;;19.80;70.00;101671.31;4992265;28;20034;-76
2021/07/08 06:51:40;;;;;;;7.78;4.18;;;;;;;19.84;69.17;101671.47;5001613;28;20096;-76
2021/07/08 06:54:06;;;;;;;5.18;3.88;;;;;;;19.88;69.56;101674.16;4991366;28;20034;-77
2021/07/08 06:56:31;;;;;;;6.38;3.83;;;;;;;19.89;69.86;101682.03;4982574;28;20026;-76
2021/07/08 06:58:57;;;;;;;6.35;3.80;;;;;;;19.89;69.18;101687.25;4992722;28;20054;-75
2021/07/08 07:01:24;;;;;;;5.63;3.83;;;;;;;19.84;69.06;101688.88;4975894;28;20030;-75
2021/07/08 07:03:49;;;;;;;7.20;3.72;;;;;;;19.83;69.54;101685.38;4959884;28;20037;-75
2021/07/08 07:06:15;;;;;;;13.57;4.85;;;;;;;19.93;69.88;101685.66;4962775;28;20018;-75
2021/07/08 07:08:41;;;;;;;7.68;4.30;;;;;;;20.00;68.88;101679.75;4978935;28;20169;-75
2021/07/08 07:11:07;;;;;;;8.48;4.43;;;;;;;20.05;69.14;101682.47;4965558;28;20057;-75
2021/07/08 07:13:32;;;;;;;8.35;4.28;;;;;;;20.16;68.56;101677.53;4962965;28;20027;-75
2021/07/08 07:15:59;;;;;;;8.15;3.95;;;;;;;20.24;68.54;101676.00;4979140;28;20396;-75
2021/07/08 07:18:24;;;;;;;7.10;3.65;;;;;;;20.30;68.95;101668.31;4979991;28;20655;-74
2021/07/08 07:20:50;;;;;;;9.75;4.43;;;;;;;20.41;69.44;101664.22;5002194;28;20029;-75
2021/07/08 07:23:15;;;;;;;9.73;5.55;;;;;;;20.55;70.02;101668.91;4985876;28;20375;-74
2021/07/08 07:25:41;;;;;;;11.35;4.30;;;;;;;20.64;66.79;101676.13;4994456;28;20026;-75
2021/07/08 07:28:11;;;;;;;8.00;3.72;;;;;;;20.69;67.14;101671.88;4994701;28;20377;-75
2021/07/08 07:30:37;;;;;;;;;;;;;;;20.77;66.19;101670.31;4962994;28;20483;-78
2021/07/08 07:33:02;;;;;;;8.43;3.75;;;;;;;20.83;66.01;101674.88;4959472;28;19965;-81
2021/07/08 07:35:28;;;;;;;8.30;4.00;;;;;;;20.89;65.30;101685.47;4975934;28;20023;-81
2021/07/08 07:37:53;;;;;;;6.72;3.72;;;;;;;20.90;65.58;101676.78;4977724;28;20038;-77
2021/07/08 07:40:20;;;;;;;8.23;3.47;;;;;;;21.04;66.31;101684.06;4996278;28;20022;-79
2021/07/08 07:42:46;;;;;;;5.93;3.13;;;;;;;21.14;66.30;101688.66;4962114;28;20026;-79
2021/07/08 07:45:12;;;;;;;6.60;3.55;;;;;;;21.31;65.81;101689.03;4978596;28;20038;-78
2021/07/08 07:47:38;;;;;;;8.77;3.90;;;;;;;21.21;65.91;101687.94;4978157;28;20026;-78
2021/07/08 07:50:05;;;;;;;7.15;3.63;;;;;;;21.11;66.65;101691.19;4978164;28;20030;-78
2021/07/08 07:52:31;;;;;;;8.10;3.80;;;;;;;21.21;66.84;101693.16;4977846;28;20042;-78
2021/07/08 07:54:56;;;;;;;8.40;4.00;;;;;;;21.09;67.19;101692.91;4996265;28;20034;-78
2021/07/08 07:57:22;;;;;;;12.50;4.28;;;;;;;21.02;67.96;101682.28;4995401;28;20353;-74
2021/07/08 07:59:48;;;;;;;9.82;3.25;;;;;;;21.14;67.52;101691.28;4995036;28;20065;-74
2021/07/08 08:02:13;;;;;;;8.02;4.07;;;;;;;21.09;67.10;101687.66;5012910;28;20092;-74
2021/07/08 08:10:06;;;;;;;11.27;4.82;;;;;;;21.40;66.03;101677.84;4977173;28;20053;-74
2021/07/08 08:12:32;;;;;;;8.95;4.50;;;;;;;21.58;65.14;101683.44;4993769;28;20499;-74
2021/07/08 08:14:57;;;;;;;13.07;4.30;;;;;;;21.67;63.03;101682.81;4972802;28;20026;-75
2021/07/08 08:17:23;;;;;;;17.13;5.05;;;;;;;21.66;62.64;101680.13;4975019;28;20404;-74
2021/07/08 08:19:49;;;;;;;5.05;2.90;;;;;;;21.54;63.36;101676.38;4973782;28;20089;-74
2021/07/08 08:22:17;;;;;;;5.85;3.33;;;;;;;21.64;63.28;101676.59;4974989;28;20034;-73
2021/07/08 08:24:43;;;;;;;5.50;3.50;;;;;;;21.55;64.72;101674.66;4973895;28;20030;-74
2021/07/08 08:27:08;;;;;;;9.35;3.58;;;;;;;21.60;66.21;101687.00;4989593;28;20025;-75
2021/07/08 08:29:34;;;;;;;8.45;3.47;;;;;;;21.92;64.22;101687.66;4973865;28;20035;-74
2021/07/08 08:32:00;;;;;;;5.75;4.10;;;;;;;21.88;64.53;101692.84;4974216;28;20033;-75
2021/07/08 08:34:25;;;;;;;6.55;3.92;;;;;;;21.78;65.23;101696.13;4991023;28;20023;-75
2021/07/08 08:36:51;;;;;;;9.15;4.30;;;;;;;21.80;66.18;101689.19;4984438;28;20030;-75
2021/07/08 08:39:16;;;;;;;5.50;3.20;;;;;;;21.99;64.90;101689.53;4969357;28;20026;-76
2021/07/08 08:41:41;;;;;;;6.35;3.20;;;;;;;21.92;65.76;101691.13;4984980;28;20037;-75
2021/07/08 08:44:08;;;;;;;11.13;3.42;;;;;;;21.99;63.26;101705.25;4980379;28;20034;-76
2021/07/08 08:46:35;;;;;;;7.07;3.20;;;;;;;22.10;61.19;101692.31;4982157;28;20483;-75
2021/07/08 08:49:05;;;;;;;12.95;3.85;;;;;;;21.83;63.07;101694.47;4978731;28;20105;-75
2021/07/08 08:51:32;;;;;;;5.43;3.30;;;;;;;21.87;64.21;101701.56;4977694;28;20026;-75
2021/07/08 08:53:58;;;;;;;7.22;3.60;;;;;;;22.03;63.94;101696.59;4976040;28;20077;-75
2021/07/08 08:56:24;;;;;;;7.63;4.07;;;;;;;22.22;64.48;101696.94;4974399;28;20101;-74
2021/07/08 08:58:49;;;;;;;4.53;2.67;;;;;;;22.46;62.64;101700.00;4976698;28;20118;-75
2021/07/08 09:01:16;;;;;;;9.40;3.72;;;;;;;22.70;62.03;101706.50;4983539;28;20030;-78
2021/07/08 09:03:42;;;;;;;5.28;3.08;;;;;;;22.74;61.46;101692.56;4984030;28;20494;-76
2021/07/08 09:06:11;;;;;;;5.07;2.85;;;;;;;22.70;58.89;101695.13;4983989;28;20030;-75
2021/07/08 09:08:49;;;;;;;7.28;2.92;;;;;;;22.78;59.14;101696.13;4990611;28;20193;-76
2021/07/08 09:11:19;;;;;;;5.88;3.13;;;;;;;22.79;59.73;101704.88;4963600;28;20035;-74
2021/07/08 09:14:00;;;;;;;8.30;2.50;;;;;;;22.89;60.43;101704.19;4977652;28;20559;-75
2021/07/08 09:16:32;;;;;;;9.55;2.78;;;;;;;22.83;59.24;101701.47;4983019;28;20022;-75
2021/07/08 09:19:01;;;;;;;5.63;2.42;;;;;;;22.84;60.40;101697.97;4980432;28;20030;-75
2021/07/08 09:21:28;;;;;;;7.65;2.60;;;;;;;22.91;59.22;101694.59;4979965;28;20034;-75
2021/07/08 09:24:08;;;;;;;4.63;2.70;;;;;;;22.94;59.28;101694.63;4979720;28;20045;-75
2021/07/08 09:26:36;;;;;;;4.82;2.35;;;;;;;22.83;59.75;101696.22;4981383;28;20086;-74
2021/07/08 09:29:08;;;;;;;10.75;3.20;;;;;;;22.83;60.48;101702.34;4980941;28;20026;-76
2021/07/08 09:31:35;;;;;;;7.13;3.10;;;;;;;22.90;60.49;101708.56;4981289;28;20022;-76
2021/07/08 09:34:14;;;;;;;7.72;2.95;;;;;;;23.23;60.12;101717.78;4979971;28;20465;-75
2021/07/08 09:36:40;;;;;;;9.30;2.90;;;;;;;23.44;57.80;101711.09;4981903;28;20018;-75
2021/07/08 09:39:07;;;;;;;7.70;3.20;;;;;;;23.91;56.48;101708.16;4980236;28;20027;-76
2021/07/08 09:41:33;;;;;;;12.57;2.75;;;;;;;23.76;56.84;101702.69;4982025;28;20125;-74
2021/07/08 09:43:59;;;;;;;7.00;2.67;;;;;;;23.68;56.57;101693.84;4982715;28;20555;-75
2021/07/08 09:46:35;;;;;;;5.55;2.80;;;;;;;25.25;52.40;101698.72;4997107;28;20113;-76
2021/07/08 09:49:06;;;;;;;8.77;3.08;;;;;;;25.69;50.86;101694.53;4979093;28;20056;-75
2021/07/08 09:51:33;;;;;;;3.97;2.88;;;;;;;26.03;51.96;101715.69;4977358;28;20076;-76
2021/07/08 09:54:07;;;;;;;6.50;2.65;;;;;;;25.33;52.54;101712.81;4982718;28;20057;-76
2021/07/08 09:56:59;;;;;;;4.43;2.70;;;;;;;25.00;53.27;101718.78;4978439;28;20029;-74
2021/07/08 09:59:36;;;;;;;9.70;3.05;;;;;;;24.86;55.57;101721.31;4968418;28;20049;-76
2021/07/08 10:02:02;;;;;;;6.35;2.80;;;;;;;24.70;55.36;101713.25;4980327;28;20492;-77
2021/07/08 10:04:28;;;;;;;6.00;2.70;;;;;;;24.93;56.43;101709.97;4983352;28;20065;-87
2021/07/08 10:06:54;;;;;;;6.07;2.83;;;;;;;24.66;54.53;101708.84;4980549;28;20097;-74
2021/07/08 10:09:21;;;;;;;8.20;2.80;;;;;;;24.31;55.03;101698.91;4980515;28;20046;-71
2021/07/08 10:11:51;;;;;;;8.60;3.08;;;;;;;24.41;57.10;101702.50;4982321;28;20051;-71
2021/07/08 10:14:18;;;;;;;6.20;2.85;;;;;;;24.59;56.14;101707.03;4998710;28;20104;-70
2021/07/08 10:16:51;;;;;;;6.32;2.92;;;;;;;24.71;54.98;101707.13;4983085;28;20027;-71
2021/07/08 10:19:22;;;;;;;8.15;2.80;;;;;;;24.87;53.57;101712.53;4981409;28;20433;-71
2021/07/08 10:21:51;;;;;;;9.10;2.58;;;;;;;24.94;52.59;101714.34;4996635;28;20050;-71
2021/07/08 10:24:18;;;;;;;8.90;2.67;;;;;;;24.64;52.95;101710.56;4978221;28;20038;-71
2021/07/08 10:26:45;;;;;;;10.25;2.67;;;;;;;24.40;55.97;101712.16;4994768;28;20187;-70
2021/07/08 10:29:11;;;;;;;8.50;2.47;;;;;;;24.06;55.58;101709.22;4976736;28;20550;-71
2021/07/08 10:31:41;;;;;;;8.73;3.50;;;;;;;23.90;57.16;101703.75;4971600;28;20439;-70
2021/07/08 10:34:17;;;;;;;5.68;2.72;;;;;;;23.84;58.76;101701.03;4984261;28;20019;-71
2021/07/08 10:36:45;;;;;;;6.35;2.83;;;;;;;23.86;58.55;101699.34;4979289;28;20168;-71
2021/07/08 10:39:15;;;;;;;8.60;2.92;;;;;;;23.88;55.60;101705.50;4980138;28;20034;-70
2021/07/08 10:41:41;;;;;;;;;;;;;;;23.93;56.05;101701.16;4993631;28;20031;-71
2021/07/08 10:44:36;;;;;;;8.27;2.58;;;;;;;24.05;55.97;101704.81;4954989;28;20279;-71
2021/07/08 10:47:03;;;;;;;5.82;2.95;;;;;;;23.93;55.96;101698.53;4971214;28;20027;-71
2021/07/08 10:49:40;;;;;;;5.50;2.90;;;;;;;23.89;57.18;101704.63;4969443;28;20026;-74
2021/07/08 10:52:10;;;;;;;7.72;3.08;;;;;;;23.98;57.01;101702.94;4951718;29;20038;-71
2021/07/08 10:54:35;;;;;;;7.10;2.63;;;;;;;24.08;57.93;101699.56;4951886;29;20027;-71
2021/07/08 10:57:02;;;;;;;6.13;3.00;;;;;;;24.18;54.87;101698.78;4952900;28;20031;-71
2021/07/08 10:59:45;;;;;;;8.40;2.40;;;;;;;23.96;55.58;101694.16;4957272;28;20035;-71
2021/07/08 11:02:45;;;;;;;6.90;2.67;;;;;;;23.96;57.18;101694.16;4987095;28;20041;-71
2021/07/08 11:05:11;;;;;;;4.88;2.70;;;;;;;24.08;56.94;101683.78;4962413;28;20050;-71
2021/07/08 11:07:46;;;;;;;7.68;3.13;;;;;;;24.05;55.56;101699.56;4976884;28;20026;-70
2021/07/08 11:10:13;;;;;;;9.88;2.80;;;;;;;23.98;56.47;101692.44;4999466;28;20054;-70
2021/07/08 11:12:40;;;;;;;6.72;3.35;;;;;;;24.07;56.01;101697.81;4989271;28;20092;-71
2021/07/08 11:15:07;;;;;;;6.55;2.78;;;;;;;24.00;55.63;101701.25;5005531;28;20112;-71
2021/07/08 11:17:41;;;;;;;6.95;3.17;;;;;;;23.84;58.34;101701.03;4983658;28;20307;-71
2021/07/08 11:20:30;;;;;;;5.18;2.90;;;;;;;23.81;57.48;101695.72;4985895;28;20015;-71
2021/07/08 11:23:35;;;;;;;8.32;3.20;;;;;;;23.92;58.09;101682.72;4969772;28;20031;-71
2021/07/08 11:26:00;;;;;;;10.35;3.10;;;;;;;23.73;56.59;101679.00;4970024;28;20034;-73
2021/07/08 11:28:30;;;;;;;5.13;2.75;;;;;;;23.99;57.71;101673.16;4969664;28;20088;-72
2021/07/08 11:30:58;;;;;;;5.28;2.45;;;;;;;23.87;55.94;101664.25;4974391;28;20035;-73
2021/07/08 11:33:24;;;;;;;13.30;3.05;;;;;;;23.79;58.75;101665.91;4969048;28;20038;-73
2021/07/08 11:35:56;;;;;;;7.00;2.88;;;;;;;23.90;56.65;101656.41;4985834;28;20030;-73
2021/07/08 11:38:23;;;;;;;6.28;3.08;;;;;;;23.84;57.00;101661.56;4969778;28;20075;-75